createdAt,value
2023-02-15T00:02:36.256Z,4.50
2023-02-15T00:05:38.948Z,4.48
2023-02-15T00:08:41.902Z,4.45
2023-02-15T00:11:50.761Z,4.46
2023-02-15T00:14:53.407Z,4.46
2023-02-15T00:17:57.762Z,4.43
2023-02-15T00:21:04.161Z,4.42
2023-02-15T00:24:08.014Z,4.43
2023-02-15T00:27:10.696Z,4.42
2023-02-15T00:30:13.586Z,4.44
2023-02-15T00:33:16.337Z,4.43
2023-02-15T00:36:19.120Z,4.43
2023-02-15T00:39:25.383Z,4.43
2023-02-15T00:42:28.046Z,4.44
2023-02-15T00:45:30.652Z,4.42
2023-02-15T00:48:33.569Z,4.38
2023-02-15T00:51:36.181Z,4.37
2023-02-15T00:54:39.784Z,4.36
2023-02-15T00:57:42.400Z,4.37
2023-02-15T01:00:46.949Z,4.33
2023-02-15T01:03:49.604Z,4.31
2023-02-15T01:06:52.367Z,4.30
2023-02-15T01:09:55.006Z,4.28
2023-02-15T01:12:58.203Z,4.23
2023-02-15T01:16:01.195Z,4.23
2023-02-15T01:19:04.430Z,4.25
2023-02-15T01:22:08.074Z,4.21
2023-02-15T01:25:11.777Z,4.23
2023-02-15T01:28:14.712Z,4.22
2023-02-15T01:31:18.611Z,4.22
2023-02-15T01:34:21.419Z,4.19
2023-02-15T01:37:24.036Z,4.19
2023-02-15T01:40:26.850Z,4.20
2023-02-15T01:43:42.712Z,4.19
2023-02-15T01:46:51.198Z,4.19
2023-02-15T01:50:01.137Z,4.18
2023-02-15T01:53:22.260Z,4.18
2023-02-15T01:56:28.183Z,4.18
2023-02-15T01:59:32.607Z,4.17
2023-02-15T02:02:35.411Z,4.16
2023-02-15T02:05:38.979Z,4.17
2023-02-15T02:08:43.118Z,4.17
2023-02-15T02:11:47.238Z,4.19
2023-02-15T02:14:50.737Z,4.17
2023-02-15T02:17:53.771Z,4.12
2023-02-15T02:20:59.249Z,4.13
2023-02-15T02:24:17.696Z,4.17
2023-02-15T02:27:23.465Z,4.16
2023-02-15T02:30:44.851Z,4.13
2023-02-15T02:34:03.059Z,4.13
2023-02-15T02:37:14.620Z,4.14
2023-02-15T02:40:22.106Z,4.18
2023-02-15T02:43:37.923Z,4.19
2023-02-15T02:46:51.660Z,4.20
2023-02-15T02:50:00.226Z,4.20
2023-02-15T02:53:02.917Z,4.15
2023-02-15T02:56:20.000Z,4.12
2023-02-15T02:59:30.400Z,4.11
2023-02-15T03:02:36.944Z,4.11
2023-02-15T03:05:41.985Z,4.12
2023-02-15T03:08:48.571Z,4.12
2023-02-15T03:11:51.826Z,4.13
2023-02-15T03:15:02.443Z,4.12
2023-02-15T03:18:05.837Z,4.12
2023-02-15T03:21:10.047Z,4.10
2023-02-15T03:24:16.430Z,4.08
2023-02-15T03:27:23.371Z,4.10
2023-02-15T03:30:26.568Z,4.13
2023-02-15T03:33:31.541Z,4.13
2023-02-15T03:36:42.975Z,4.13
2023-02-15T03:40:20.272Z,4.13
2023-02-15T03:43:34.359Z,4.13
2023-02-15T03:46:49.193Z,4.15
2023-02-15T03:49:55.361Z,4.19
2023-02-15T03:52:59.904Z,4.19
2023-02-15T03:56:03.281Z,4.17
2023-02-15T03:59:25.997Z,4.15
2023-02-15T04:02:31.689Z,4.10
2023-02-15T04:05:34.342Z,4.06
2023-02-15T04:08:55.836Z,4.08
2023-02-15T04:11:58.646Z,4.08
2023-02-15T04:15:20.300Z,4.05
2023-02-15T04:18:23.022Z,4.05
2023-02-15T04:21:45.294Z,4.04
2023-02-15T04:25:06.587Z,4.01
2023-02-15T04:28:09.460Z,4.01
2023-02-15T04:31:12.182Z,4.02
2023-02-15T04:34:15.341Z,4.05
2023-02-15T04:37:17.938Z,4.07
2023-02-15T04:40:20.575Z,4.09
2023-02-15T04:43:23.177Z,4.12
2023-02-15T04:46:25.825Z,4.14
2023-02-15T04:49:28.577Z,4.13
2023-02-15T04:52:31.354Z,4.11
2023-02-15T04:55:33.958Z,4.07
2023-02-15T04:58:37.874Z,4.06
2023-02-15T05:01:40.529Z,4.06
2023-02-15T05:04:43.255Z,4.05
2023-02-15T05:07:45.927Z,4.04
2023-02-15T05:10:49.506Z,3.99
2023-02-15T05:13:52.258Z,3.93
2023-02-15T05:16:55.137Z,3.92
2023-02-15T05:19:57.795Z,3.93
2023-02-15T05:23:00.543Z,3.95
2023-02-15T05:26:22.328Z,3.97
2023-02-15T05:29:24.980Z,3.96
2023-02-15T05:32:28.239Z,3.95
2023-02-15T05:35:31.106Z,3.95
2023-02-15T05:38:33.984Z,4.01
2023-02-15T05:41:36.627Z,4.04
2023-02-15T05:44:39.233Z,4.08
2023-02-15T05:47:42.018Z,4.09
2023-02-15T05:50:45.134Z,4.11
2023-02-15T05:53:47.806Z,4.09
2023-02-15T05:56:50.406Z,4.07
2023-02-15T05:59:53.058Z,4.04
2023-02-15T06:02:55.646Z,4.05
2023-02-15T06:05:58.290Z,4.05
2023-02-15T06:09:01.188Z,4.07
2023-02-15T06:12:03.958Z,4.08
2023-02-15T06:15:06.939Z,4.09
2023-02-15T06:18:09.590Z,4.07
2023-02-15T06:21:12.228Z,4.06
2023-02-15T06:24:14.948Z,4.05
2023-02-15T06:27:17.650Z,4.03
2023-02-15T06:30:20.480Z,4.04
2023-02-15T06:33:23.433Z,4.06
2023-02-15T06:36:26.126Z,4.06
2023-02-15T06:39:28.847Z,4.07
2023-02-15T06:42:31.519Z,4.06
2023-02-15T06:45:34.147Z,4.05
2023-02-15T06:48:36.920Z,4.06
2023-02-15T06:51:39.518Z,4.05
2023-02-15T06:54:42.170Z,4.06
2023-02-15T06:57:44.834Z,4.08
2023-02-15T07:00:47.459Z,4.10
2023-02-15T07:03:50.448Z,4.12
2023-02-15T07:06:54.188Z,4.13
2023-02-15T07:09:57.160Z,4.14
2023-02-15T07:12:59.823Z,4.15
2023-02-15T07:16:02.683Z,4.13
2023-02-15T07:19:05.678Z,4.14
2023-02-15T07:22:08.472Z,4.14
2023-02-15T07:25:12.379Z,4.15
2023-02-15T07:28:16.972Z,4.18
2023-02-15T07:31:19.669Z,4.18
2023-02-15T07:34:22.444Z,4.22
2023-02-15T07:37:25.097Z,4.23
2023-02-15T07:40:27.874Z,4.25
2023-02-15T07:43:30.862Z,4.24
2023-02-15T07:46:33.768Z,4.25
2023-02-15T07:49:36.468Z,4.22
2023-02-15T07:52:39.178Z,4.21
2023-02-15T07:55:41.869Z,4.26
2023-02-15T07:58:53.579Z,4.27
2023-02-15T08:01:57.606Z,4.31
2023-02-15T08:05:00.338Z,4.36
2023-02-15T08:08:03.200Z,4.36
2023-02-15T08:11:37.261Z,4.36
2023-02-15T08:14:39.935Z,4.41
2023-02-15T08:17:42.651Z,4.40
2023-02-15T08:20:49.804Z,4.40
2023-02-15T08:23:52.544Z,4.40
2023-02-15T08:26:55.785Z,4.38
2023-02-15T08:29:58.477Z,4.39
2023-02-15T08:33:01.106Z,4.40
2023-02-15T08:36:04.744Z,4.51
2023-02-15T08:39:07.923Z,4.52
2023-02-15T08:42:10.527Z,4.55
2023-02-15T08:45:13.265Z,4.55
2023-02-15T08:48:15.884Z,4.55
2023-02-15T08:51:20.084Z,4.55
2023-02-15T08:54:23.020Z,4.56
2023-02-15T08:57:25.789Z,4.57
2023-02-15T09:00:29.398Z,4.59
2023-02-15T09:03:32.057Z,4.65
2023-02-15T09:06:34.714Z,4.65
2023-02-15T09:09:37.323Z,4.67
2023-02-15T09:12:40.087Z,4.64
2023-02-15T09:15:42.690Z,4.63
2023-02-15T09:18:45.423Z,4.61
2023-02-15T09:21:48.453Z,4.62
2023-02-15T09:24:51.098Z,4.64
2023-02-15T09:27:53.782Z,4.67
2023-02-15T09:30:56.864Z,4.70
2023-02-15T09:34:01.760Z,4.69
2023-02-15T09:37:06.174Z,4.69
2023-02-15T09:40:09.161Z,4.72
2023-02-15T09:43:18.996Z,4.76
2023-02-15T09:46:31.797Z,4.75
2023-02-15T09:49:55.236Z,4.73
2023-02-15T09:53:16.687Z,4.76
2023-02-15T09:56:25.264Z,4.77
2023-02-15T09:59:40.343Z,4.76
2023-02-15T10:02:43.091Z,4.73
2023-02-15T10:05:46.038Z,4.70
2023-02-15T10:08:48.693Z,4.70
2023-02-15T10:12:06.511Z,4.69
2023-02-15T10:15:18.800Z,4.61
2023-02-15T10:18:21.394Z,4.61
2023-02-15T10:21:40.395Z,4.63
2023-02-15T10:25:08.314Z,4.68
2023-02-15T10:28:18.441Z,4.73
2023-02-15T10:31:22.271Z,4.79
2023-02-15T10:34:32.659Z,4.81
2023-02-15T10:37:41.435Z,4.78
2023-02-15T10:40:44.024Z,4.78
2023-02-15T10:43:53.931Z,4.81
2023-02-15T10:46:59.856Z,4.79
2023-02-15T10:50:18.230Z,4.78
2023-02-15T10:53:39.908Z,4.74
2023-02-15T10:57:08.702Z,4.73
2023-02-15T11:00:17.505Z,4.77
2023-02-15T11:03:29.143Z,4.78
2023-02-15T11:06:32.790Z,4.75
2023-02-15T11:09:41.779Z,4.76
2023-02-15T11:12:45.814Z,4.78
2023-02-15T11:15:52.657Z,4.80
2023-02-15T11:19:01.073Z,4.79
2023-02-15T11:22:05.271Z,4.77
2023-02-15T11:25:20.152Z,4.78
2023-02-15T11:28:28.631Z,4.78
2023-02-15T11:31:37.462Z,4.78
2023-02-15T11:34:45.906Z,4.79
2023-02-15T11:37:54.830Z,4.80
2023-02-15T11:41:00.949Z,4.78
2023-02-15T11:44:17.229Z,4.79
2023-02-15T11:47:19.912Z,4.81
2023-02-15T11:50:26.536Z,4.83
2023-02-15T11:53:32.906Z,4.84
2023-02-15T11:56:35.991Z,4.82
2023-02-15T11:59:41.300Z,4.79
2023-02-15T12:02:46.320Z,4.81
2023-02-15T12:05:51.955Z,4.84
2023-02-15T12:09:07.875Z,4.82
2023-02-15T12:12:24.452Z,4.79
2023-02-15T12:15:36.295Z,4.79
2023-02-15T12:18:40.759Z,4.77
2023-02-15T12:21:43.490Z,4.75
2023-02-15T12:24:47.540Z,4.76
2023-02-15T12:27:50.931Z,4.77
2023-02-15T12:30:54.662Z,4.78
2023-02-15T12:33:59.227Z,4.78
2023-02-15T12:37:08.774Z,4.80
2023-02-15T12:40:22.794Z,4.83
2023-02-15T12:43:32.914Z,4.85
2023-02-15T12:46:38.714Z,4.81
2023-02-15T12:49:47.500Z,4.77
2023-02-15T12:53:06.827Z,4.74
2023-02-15T12:56:10.712Z,4.77
2023-02-15T12:59:15.761Z,4.81
2023-02-15T13:02:26.706Z,4.79
2023-02-15T13:05:29.456Z,4.82
2023-02-15T13:08:34.474Z,4.87
2023-02-15T13:11:38.821Z,4.88
2023-02-15T13:14:44.253Z,4.84
2023-02-15T13:17:49.397Z,4.81
2023-02-15T13:20:52.636Z,4.77
2023-02-15T13:24:01.087Z,4.74
2023-02-15T13:27:15.029Z,4.74
2023-02-15T13:30:36.253Z,4.74
2023-02-15T13:33:39.556Z,4.75
2023-02-15T13:37:04.382Z,4.69
2023-02-15T13:40:23.320Z,4.70
2023-02-15T13:43:35.220Z,4.72
2023-02-15T13:46:46.366Z,4.75
2023-02-15T13:50:07.605Z,4.76
2023-02-15T13:53:29.030Z,4.76
2023-02-15T13:56:40.682Z,4.77
2023-02-15T13:59:43.334Z,4.72
2023-02-15T14:03:01.626Z,4.71
2023-02-15T14:06:11.275Z,4.70
2023-02-15T14:09:32.813Z,4.72
2023-02-15T14:12:35.930Z,4.75
2023-02-15T14:15:57.314Z,4.73
2023-02-15T14:19:14.312Z,4.71
2023-02-15T14:22:26.313Z,4.71
2023-02-15T14:25:42.394Z,4.72
2023-02-15T14:28:52.112Z,4.71
2023-02-15T14:31:56.946Z,4.70
2023-02-15T14:35:01.237Z,4.69
2023-02-15T14:38:22.608Z,4.66
2023-02-15T14:41:37.712Z,4.64
2023-02-15T14:44:44.220Z,4.60
2023-02-15T14:47:56.907Z,4.56
2023-02-15T14:50:59.560Z,4.53
2023-02-15T14:54:02.545Z,4.53
2023-02-15T14:57:08.460Z,4.51
2023-02-15T15:00:32.305Z,4.52
2023-02-15T15:03:36.532Z,4.53
2023-02-15T15:06:41.314Z,4.50
2023-02-15T15:09:46.133Z,4.45
2023-02-15T15:12:50.091Z,4.45
2023-02-15T15:15:54.142Z,4.45
2023-02-15T15:18:57.410Z,4.42
2023-02-15T15:22:04.372Z,4.41
2023-02-15T15:25:33.047Z,4.40
2023-02-15T15:28:35.656Z,4.42
2023-02-15T15:31:38.491Z,4.41
2023-02-15T15:35:02.178Z,4.41
2023-02-15T15:38:05.376Z,4.41
2023-02-15T15:41:17.056Z,4.37
2023-02-15T15:44:22.948Z,4.31
2023-02-15T15:47:37.458Z,4.29
2023-02-15T15:50:42.193Z,4.26
2023-02-15T15:53:48.103Z,4.23
2023-02-15T15:56:52.728Z,4.22
2023-02-15T15:59:56.086Z,4.22
2023-02-15T16:02:58.752Z,4.20
2023-02-15T16:06:02.275Z,4.17
2023-02-15T16:09:32.191Z,4.16
2023-02-15T16:12:36.546Z,4.16
2023-02-15T16:15:50.577Z,4.12
2023-02-15T16:18:53.547Z,4.08
2023-02-15T16:21:58.693Z,4.07
2023-02-15T16:25:20.416Z,4.06
2023-02-15T16:28:23.178Z,4.06
2023-02-15T16:31:25.981Z,4.06
2023-02-15T16:34:29.171Z,4.00
2023-02-15T16:37:35.380Z,3.93
2023-02-15T16:40:53.521Z,3.91
2023-02-15T16:43:58.708Z,3.88
2023-02-15T16:47:02.404Z,3.85
2023-02-15T16:50:05.570Z,3.83
2023-02-15T16:53:15.153Z,3.78
2023-02-15T16:56:23.907Z,3.75
2023-02-15T16:59:29.400Z,3.69
2023-02-15T17:02:54.476Z,3.66
2023-02-15T17:05:57.770Z,3.64
2023-02-15T17:09:04.787Z,3.60
2023-02-15T17:12:10.788Z,3.55
2023-02-15T17:15:25.832Z,3.53
2023-02-15T17:18:33.835Z,3.50
2023-02-15T17:21:49.267Z,3.45
2023-02-15T17:24:59.058Z,3.40
2023-02-15T17:28:01.945Z,3.34
2023-02-15T17:31:08.003Z,3.27
2023-02-15T17:34:30.734Z,3.23
2023-02-15T17:37:39.323Z,3.17
2023-02-15T17:40:41.984Z,3.12
2023-02-15T17:43:44.646Z,3.07
2023-02-15T17:46:47.354Z,3.02
2023-02-15T17:49:50.311Z,2.97
2023-02-15T17:52:53.997Z,2.92
2023-02-15T17:55:56.988Z,2.88
2023-02-15T17:58:59.772Z,2.87
2023-02-15T18:02:21.285Z,2.97
2023-02-15T18:05:42.862Z,3.06
2023-02-15T18:09:04.488Z,2.99
2023-02-15T18:12:21.330Z,2.91
2023-02-15T18:15:24.629Z,2.83
2023-02-15T18:18:28.148Z,2.78
2023-02-15T18:21:32.110Z,2.75
2023-02-15T18:24:34.736Z,2.72
2023-02-15T18:27:37.427Z,2.68
2023-02-15T18:30:44.240Z,2.64
2023-02-15T18:33:49.238Z,2.60
2023-02-15T18:36:52.327Z,2.55
2023-02-15T18:39:55.380Z,2.50
2023-02-15T18:42:58.131Z,2.48
2023-02-15T18:46:00.969Z,2.46
2023-02-15T18:49:04.217Z,2.46
2023-02-15T18:52:14.417Z,2.41
2023-02-15T18:55:25.069Z,2.36
2023-02-15T18:58:28.911Z,2.32
2023-02-15T19:01:31.638Z,2.29
2023-02-15T19:04:34.301Z,2.27
2023-02-15T19:07:37.861Z,2.23
2023-02-15T19:10:40.643Z,2.21
2023-02-15T19:13:43.297Z,2.20
2023-02-15T19:16:46.026Z,2.22
2023-02-15T19:19:49.783Z,2.23
2023-02-15T19:22:53.582Z,2.21
2023-02-15T19:25:56.244Z,2.22
2023-02-15T19:29:02.514Z,2.24
2023-02-15T19:32:05.502Z,2.24
2023-02-15T19:35:15.949Z,2.24
2023-02-15T19:38:21.089Z,2.22
2023-02-15T19:41:27.631Z,2.22
2023-02-15T19:44:30.502Z,2.23
2023-02-15T19:47:33.154Z,2.24
2023-02-15T19:50:35.947Z,2.23
2023-02-15T19:53:38.645Z,2.19
2023-02-15T19:56:41.340Z,2.20
2023-02-15T19:59:43.989Z,2.18
2023-02-15T20:02:46.827Z,2.16
2023-02-15T20:05:49.522Z,2.13
2023-02-15T20:08:52.294Z,2.13
2023-02-15T20:11:55.553Z,2.08
2023-02-15T20:14:58.449Z,2.08
2023-02-15T20:18:03.670Z,2.07
2023-02-15T20:21:09.440Z,2.09
2023-02-15T20:24:19.274Z,2.12
2023-02-15T20:27:22.479Z,2.12
2023-02-15T20:30:26.649Z,2.12
2023-02-15T20:33:29.351Z,2.08
2023-02-15T20:36:32.252Z,2.09
2023-02-15T20:39:37.169Z,2.10
2023-02-15T20:42:39.869Z,2.05
2023-02-15T20:45:42.540Z,2.05
2023-02-15T20:48:45.410Z,2.06
2023-02-15T20:51:48.425Z,2.06
2023-02-15T20:54:51.256Z,2.06
2023-02-15T20:57:53.893Z,2.05
2023-02-15T21:00:57.608Z,2.05
2023-02-15T21:04:00.389Z,2.06
2023-02-15T21:07:03.036Z,2.06
2023-02-15T21:10:06.411Z,2.02
2023-02-15T21:13:19.060Z,1.99
2023-02-15T21:16:21.822Z,2.00
2023-02-15T21:19:24.814Z,2.03
2023-02-15T21:22:27.923Z,2.04
2023-02-15T21:25:33.527Z,2.07
2023-02-15T21:28:36.712Z,2.08
2023-02-15T21:31:39.562Z,2.09
2023-02-15T21:34:42.273Z,2.09
2023-02-15T21:37:46.376Z,2.08
2023-02-15T21:40:49.706Z,2.06
2023-02-15T21:44:11.240Z,2.07
2023-02-15T21:47:45.846Z,2.07
2023-02-15T21:51:08.717Z,2.06
2023-02-15T21:54:15.115Z,2.03
2023-02-15T21:57:17.769Z,2.01
2023-02-15T22:00:22.211Z,2.00
2023-02-15T22:03:26.708Z,1.97
2023-02-15T22:06:29.341Z,1.92
2023-02-15T22:09:31.993Z,1.89
2023-02-15T22:12:34.599Z,1.87
2023-02-15T22:15:37.622Z,1.85
2023-02-15T22:18:40.265Z,1.85
2023-02-15T22:21:43.201Z,1.85
2023-02-15T22:24:45.890Z,1.81
2023-02-15T22:27:49.498Z,1.81
2023-02-15T22:30:52.127Z,1.81
2023-02-15T22:33:55.400Z,1.78
2023-02-15T22:36:58.789Z,1.75
2023-02-15T22:40:01.414Z,1.76
2023-02-15T22:43:05.734Z,1.76
2023-02-15T22:46:13.791Z,1.76
2023-02-15T22:49:16.493Z,1.74
2023-02-15T22:52:19.189Z,1.75
2023-02-15T22:55:23.470Z,1.72
2023-02-15T22:58:28.182Z,1.71
2023-02-15T23:01:32.728Z,1.71
2023-02-15T23:04:35.349Z,1.68
2023-02-15T23:07:38.061Z,1.69
2023-02-15T23:10:41.553Z,1.69
2023-02-15T23:13:44.331Z,1.69
2023-02-15T23:16:47.132Z,1.67
2023-02-15T23:19:49.786Z,1.66
2023-02-15T23:22:52.444Z,1.64
2023-02-15T23:25:55.608Z,1.60
2023-02-15T23:28:59.528Z,1.56
2023-02-15T23:32:02.358Z,1.58
2023-02-15T23:35:13.471Z,1.54
2023-02-15T23:38:24.268Z,1.54
2023-02-15T23:41:29.208Z,1.54
2023-02-15T23:44:31.880Z,1.52
2023-02-15T23:47:53.803Z,1.50
2023-02-15T23:50:56.930Z,1.46
2023-02-15T23:53:59.714Z,1.41
2023-02-15T23:57:03.084Z,1.38
